Time;durP1;ratioP1;P1;durP2;ratioP2;P2;SDS_P1;SDS_P2;PMS_P1;PMS_P2;Temp;Humidity;BMP_temperature;BMP_pressure;BME280_temperature;BME280_humidity;BME280_pressure;Samples;Min_cycle;Max_cycle;Signal;HPM_P1;HPM_P2
2021/06/01 00:01:23;;;;;;;5.53;2.90;;;18.30;63.60;;;;;;5095726;28;20089;-73
2021/06/01 00:03:49;;;;;;;10.15;3.20;;;18.30;63.70;;;;;;5096202;28;20052;-73
2021/06/01 00:06:15;;;;;;;5.72;3.22;;;18.30;63.20;;;;;;5095915;28;20021;-73
2021/06/01 00:08:41;;;;;;;4.63;3.30;;;18.30;63.10;;;;;;5095723;28;20052;-73
2021/06/01 00:11:09;;;;;;;7.75;2.67;;;18.20;63.00;;;;;;5095997;28;20101;-73
2021/06/01 00:13:35;;;;;;;4.32;2.70;;;18.20;62.60;;;;;;5095808;28;20024;-73
2021/06/01 00:16:02;;;;;;;4.20;2.60;;;18.10;62.40;;;;;;5095647;28;20020;-73
2021/06/01 00:18:27;;;;;;;5.05;2.42;;;18.00;62.60;;;;;;5095758;28;20028;-74
2021/06/01 00:20:53;;;;;;;4.90;2.10;;;18.00;63.00;;;;;;5095682;28;20076;-73
2021/06/01 00:23:19;;;;;;;5.43;2.67;;;18.00;62.40;;;;;;5095656;28;20032;-74
2021/06/01 00:25:45;;;;;;;5.90;2.58;;;18.00;61.10;;;;;;5095224;28;20556;-73
2021/06/01 00:28:10;;;;;;;9.95;2.72;;;17.90;60.60;;;;;;5095661;28;20020;-73
2021/06/01 00:30:36;;;;;;;2.90;2.42;;;17.90;60.50;;;;;;5077301;28;20040;-74
2021/06/01 00:33:02;;;;;;;3.67;2.47;;;17.80;61.00;;;;;;5095266;28;20341;-73
2021/06/01 00:35:28;;;;;;;8.35;2.50;;;17.70;61.30;;;;;;5095163;28;20023;-73
2021/06/01 00:37:54;;;;;;;3.85;2.72;;;17.60;60.90;;;;;;5095278;28;20486;-73
2021/06/01 00:40:20;;;;;;;5.53;2.92;;;17.50;61.30;;;;;;5077176;28;20032;-74
2021/06/01 00:42:46;;;;;;;7.75;2.97;;;17.40;62.00;;;;;;5095243;28;20035;-73
2021/06/01 00:45:18;;;;;;;4.47;3.10;;;17.30;62.50;;;;;;5095350;28;20020;-73
2021/06/01 00:47:43;;;;;;;4.65;2.92;;;17.40;63.60;;;;;;5095254;28;20043;-73
2021/06/01 00:50:10;;;;;;;4.72;3.10;;;17.40;64.00;;;;;;5095156;28;20020;-73
2021/06/01 00:52:36;;;;;;;4.70;3.17;;;17.50;64.10;;;;;;5095098;28;20115;-73
2021/06/01 00:55:06;;;;;;;10.57;3.13;;;17.50;64.50;;;;;;5095233;28;20059;-73
2021/06/01 00:57:32;;;;;;;7.35;2.80;;;17.50;64.90;;;;;;5094107;28;20024;-73
2021/06/01 00:59:59;;;;;;;9.60;3.10;;;17.50;64.60;;;;;;5092214;28;20081;-73
2021/06/01 01:02:25;;;;;;;4.75;2.60;;;17.50;64.70;;;;;;5092072;28;20028;-73
2021/06/01 01:04:51;;;;;;;6.65;3.13;;;17.50;65.00;;;;;;5093182;28;20029;-75
2021/06/01 01:10:21;;;;;;;4.60;2.83;;;17.50;63.50;;;;;;5052402;28;20041;-74
2021/06/01 01:12:51;;;;;;;5.72;2.83;;;17.50;64.20;;;;;;5085708;28;20032;-74
2021/06/01 01:15:20;;;;;;;6.97;3.10;;;17.60;64.40;;;;;;5094499;28;20111;-74
2021/06/01 01:17:49;;;;;;;8.48;3.50;;;17.60;64.30;;;;;;5094319;28;20462;-74
2021/06/01 01:20:33;;;;;;;5.68;3.22;;;17.60;64.10;;;;;;5094245;28;20111;-74
2021/06/01 01:23:04;;;;;;;3.50;2.88;;;17.60;64.50;;;;;;5094201;28;20024;-74
2021/06/01 01:25:46;;;;;;;4.00;2.80;;;17.60;64.80;;;;;;5094427;28;20609;-73
2021/06/01 01:29:04;;;;;;;6.30;3.10;;;17.60;64.70;;;;;;5094044;28;20016;-74
2021/06/01 01:31:54;;;;;;;5.25;2.90;;;17.50;65.20;;;;;;5049278;28;20101;-74
2021/06/01 01:34:21;;;;;;;10.95;2.90;;;17.50;65.00;;;;;;5094213;28;20050;-73
2021/06/01 01:36:47;;;;;;;4.32;3.00;;;17.50;65.40;;;;;;5093798;28;20464;-73
2021/06/01 01:39:15;;;;;;;5.45;3.30;;;17.50;65.50;;;;;;5094048;28;20103;-74
2021/06/01 01:41:42;;;;;;;6.43;3.10;;;17.50;66.00;;;;;;5094097;28;20148;-73
2021/06/01 01:44:12;;;;;;;5.90;3.40;;;17.40;66.10;;;;;;5093884;28;20357;-74
2021/06/01 01:49:08;;;;;;;8.25;3.38;;;17.40;65.30;;;;;;5093860;28;20384;-73
2021/06/01 01:51:43;;;;;;;6.32;3.28;;;17.30;65.60;;;;;;5093342;28;20043;-73
2021/06/01 01:54:14;;;;;;;5.35;3.17;;;17.30;65.70;;;;;;5093729;28;20020;-73
2021/06/01 01:56:43;;;;;;;4.45;2.88;;;17.30;65.70;;;;;;5093799;28;20020;-73
2021/06/01 01:59:12;;;;;;;6.38;3.38;;;17.40;65.40;;;;;;5092936;28;20082;-73
2021/06/01 02:01:41;;;;;;;6.63;2.97;;;17.40;65.10;;;;;;5092944;28;20085;-74
2021/06/01 02:04:07;;;;;;;3.65;3.00;;;17.30;64.80;;;;;;5093787;28;20020;-73
2021/06/01 02:06:33;;;;;;;6.13;3.40;;;17.30;64.60;;;;;;5093431;28;20024;-73
2021/06/01 02:08:59;;;;;;;3.53;3.20;;;17.30;64.80;;;;;;5075150;28;20024;-73
2021/06/01 02:11:25;;;;;;;11.13;3.10;;;17.30;65.00;;;;;;5093014;28;20077;-73
2021/06/01 02:13:57;;;;;;;6.70;3.00;;;17.20;65.10;;;;;;5093538;28;20031;-73
2021/06/01 02:16:23;;;;;;;7.68;3.20;;;17.20;65.00;;;;;;5093423;28;20030;-73
2021/06/01 02:18:50;;;;;;;4.88;3.05;;;17.20;64.50;;;;;;5092710;28;20098;-73
2021/06/01 02:24:27;;;;;;;5.28;2.70;;;17.10;64.80;;;;;;5085176;28;20840;-73
2021/06/01 02:26:59;;;;;;;3.78;2.88;;;17.10;64.90;;;;;;5091087;28;20637;-73
2021/06/01 02:29:51;;;;;;;4.75;2.90;;;17.10;65.50;;;;;;5090371;28;20113;-73
2021/06/01 02:32:19;;;;;;;4.07;3.00;;;17.00;66.20;;;;;;5092028;28;20028;-73
2021/06/01 02:34:46;;;;;;;7.85;3.35;;;17.00;66.00;;;;;;5092994;28;20020;-73
2021/06/01 02:37:13;;;;;;;7.38;3.25;;;16.90;66.40;;;;;;5091394;28;20028;-73
2021/06/01 02:39:40;;;;;;;4.05;2.80;;;16.80;66.60;;;;;;5093178;28;20036;-73
2021/06/01 02:42:07;;;;;;;6.13;3.00;;;16.80;66.60;;;;;;5093259;28;20422;-73
2021/06/01 02:44:34;;;;;;;5.68;3.47;;;16.80;66.80;;;;;;5092853;28;20035;-73
2021/06/01 02:47:04;;;;;;;6.43;3.25;;;16.80;66.90;;;;;;5093256;28;20023;-74
2021/06/01 02:49:32;;;;;;;4.65;3.00;;;16.80;67.10;;;;;;5093059;28;20042;-74
2021/06/01 02:51:58;;;;;;;4.90;3.13;;;16.80;67.10;;;;;;5093188;28;20476;-74
2021/06/01 02:54:24;;;;;;;5.95;3.10;;;16.80;66.80;;;;;;5093087;28;20058;-74
2021/06/01 02:56:51;;;;;;;6.15;3.53;;;16.80;66.70;;;;;;5093019;28;20024;-73
2021/06/01 02:59:18;;;;;;;6.00;3.17;;;16.80;66.90;;;;;;5089985;28;20040;-73
2021/06/01 03:01:47;;;;;;;4.55;3.00;;;16.80;66.80;;;;;;5090217;28;20498;-73
2021/06/01 03:04:13;;;;;;;6.28;2.85;;;16.80;66.50;;;;;;5090912;28;20050;-73
2021/06/01 03:06:45;;;;;;;3.42;2.88;;;16.80;66.10;;;;;;5092730;28;20024;-74
2021/06/01 03:09:11;;;;;;;5.68;2.80;;;16.70;66.00;;;;;;5092977;28;20028;-73
2021/06/01 03:11:37;;;;;;;4.22;3.08;;;16.70;66.20;;;;;;5092974;28;20024;-73
2021/06/01 03:14:04;;;;;;;5.30;3.17;;;16.70;66.50;;;;;;5092671;28;20032;-73
2021/06/01 03:16:29;;;;;;;8.18;3.10;;;16.70;66.70;;;;;;5092672;28;20024;-73
2021/06/01 03:18:55;;;;;;;4.25;3.20;;;16.60;66.90;;;;;;5092654;28;20036;-73
2021/06/01 03:21:21;;;;;;;5.38;2.60;;;16.60;66.70;;;;;;5093016;28;20058;-73
2021/06/01 03:23:47;;;;;;;4.70;2.90;;;16.60;66.40;;;;;;5074826;28;20028;-73
2021/06/01 03:26:13;;;;;;;7.05;3.03;;;16.60;65.90;;;;;;5092791;28;20028;-73
2021/06/01 03:28:40;;;;;;;7.93;3.25;;;16.50;65.80;;;;;;5092350;28;20054;-73
2021/06/01 03:31:06;;;;;;;4.53;2.67;;;16.50;66.10;;;;;;5094339;28;20498;-74
2021/06/01 03:33:33;;;;;;;5.65;2.70;;;16.50;65.60;;;;;;5096656;28;20055;-73
2021/06/01 03:35:59;;;;;;;4.20;2.60;;;16.50;65.30;;;;;;5096598;28;20404;-74
2021/06/01 03:38:26;;;;;;;5.20;2.60;;;16.50;65.50;;;;;;5096260;28;20028;-73
2021/06/01 03:40:53;;;;;;;5.53;2.53;;;16.50;65.80;;;;;;5096456;28;20028;-73
2021/06/01 03:43:18;;;;;;;3.90;2.60;;;16.50;66.00;;;;;;5096594;28;20028;-73
2021/06/01 03:45:44;;;;;;;4.55;2.60;;;16.50;65.60;;;;;;5096423;28;20028;-73
2021/06/01 03:48:10;;;;;;;3.75;2.90;;;16.50;65.90;;;;;;5096311;28;20422;-73
2021/06/01 03:50:35;;;;;;;6.03;2.75;;;16.40;66.10;;;;;;5096288;28;20064;-73
2021/06/01 03:53:02;;;;;;;3.85;2.70;;;16.40;66.20;;;;;;5096255;28;20380;-73
2021/06/01 03:55:28;;;;;;;5.60;3.75;;;16.40;66.20;;;;;;5096422;28;20028;-73
2021/06/01 03:57:54;;;;;;;5.00;2.55;;;16.40;66.10;;;;;;5096478;28;20036;-73
2021/06/01 04:00:26;;;;;;;9.60;3.00;;;16.30;66.80;;;;;;5096314;28;20040;-74
2021/06/01 04:02:52;;;;;;;8.90;3.20;;;16.40;66.90;;;;;;5096153;28;20547;-73
2021/06/01 04:05:17;;;;;;;3.60;2.80;;;16.40;66.50;;;;;;5095895;28;20094;-73
2021/06/01 04:07:47;;;;;;;7.03;3.10;;;16.40;66.70;;;;;;5096179;28;20499;-73
2021/06/01 04:10:15;;;;;;;8.13;2.97;;;16.30;67.30;;;;;;5095914;28;20109;-73
2021/06/01 04:12:41;;;;;;;6.85;3.00;;;16.30;67.10;;;;;;5096041;28;20483;-74
2021/06/01 04:15:07;;;;;;;8.85;3.58;;;16.30;66.90;;;;;;5095603;28;20024;-73
2021/06/01 04:17:33;;;;;;;6.22;3.67;;;16.20;67.60;;;;;;5095813;28;20039;-73
2021/06/01 04:20:00;;;;;;;9.50;3.47;;;16.20;68.00;;;;;;5095849;28;20028;-73
2021/06/01 04:22:25;;;;;;;6.82;3.67;;;16.20;68.10;;;;;;5095881;28;20380;-73
2021/06/01 04:24:51;;;;;;;5.97;3.55;;;16.20;67.80;;;;;;5095209;28;20024;-73
2021/06/01 04:27:17;;;;;;;5.63;3.20;;;16.20;68.00;;;;;;5095329;28;20024;-73
2021/06/01 04:29:42;;;;;;;6.68;3.58;;;16.10;68.20;;;;;;5095364;28;20040;-73
2021/06/01 04:32:08;;;;;;;4.72;3.60;;;16.10;68.20;;;;;;5095555;28;20537;-73
2021/06/01 04:34:34;;;;;;;10.50;3.53;;;16.10;68.20;;;;;;5095241;28;20031;-73
2021/06/01 04:37:00;;;;;;;7.93;3.83;;;16.10;68.40;;;;;;5095500;28;20028;-73
2021/06/01 04:39:25;;;;;;;15.18;4.20;;;16.10;68.70;;;;;;5095316;28;20115;-73
2021/06/01 04:41:51;;;;;;;10.65;3.85;;;16.10;68.90;;;;;;5095223;28;20020;-73
2021/06/01 04:44:17;;;;;;;6.85;3.50;;;16.20;69.00;;;;;;5095154;28;20024;-73
2021/06/01 04:46:43;;;;;;;12.10;4.47;;;16.20;68.60;;;;;;5095286;28;20024;-74
2021/06/01 04:49:08;;;;;;;11.20;3.63;;;16.20;68.30;;;;;;5095187;28;20031;-74
2021/06/01 04:51:34;;;;;;;7.32;2.35;;;16.20;67.70;;;;;;5095171;28;20017;-73
2021/06/01 04:54:00;;;;;;;6.60;2.50;;;16.20;66.30;;;;;;5095211;28;20472;-74
2021/06/01 04:56:27;;;;;;;4.97;2.58;;;16.20;65.30;;;;;;5094994;28;20464;-74
2021/06/01 04:58:54;;;;;;;11.13;2.67;;;16.30;64.90;;;;;;5094771;28;20060;-73
2021/06/01 05:01:24;;;;;;;3.30;2.45;;;16.30;64.70;;;;;;5094764;28;20026;-73
2021/06/01 05:03:50;;;;;;;6.18;2.40;;;16.30;64.80;;;;;;5094885;28;20035;-74
2021/06/01 05:06:16;;;;;;;5.22;2.55;;;16.40;64.60;;;;;;5094742;28;20012;-72
2021/06/01 05:08:43;;;;;;;2.70;1.98;;;16.40;64.50;;;;;;5094814;28;20023;-73
2021/06/01 05:11:09;;;;;;;5.10;2.40;;;16.40;64.10;;;;;;5076642;28;20016;-73
2021/06/01 05:13:34;;;;;;;3.28;1.83;;;16.50;63.70;;;;;;5094245;28;20077;-74
2021/06/01 05:16:00;;;;;;;5.22;1.95;;;16.50;63.50;;;;;;5094487;28;20031;-73
2021/06/01 05:18:26;;;;;;;5.43;2.08;;;16.50;63.50;;;;;;5094301;28;20028;-73
2021/06/01 05:20:51;;;;;;;6.00;2.10;;;16.60;63.60;;;;;;5094613;28;20024;-74
2021/06/01 05:23:17;;;;;;;3.47;2.20;;;16.60;63.60;;;;;;5094508;28;20032;-73
2021/06/01 05:25:46;;;;;;;5.80;2.20;;;16.60;63.40;;;;;;5094542;28;20024;-74
2021/06/01 05:28:12;;;;;;;3.10;2.20;;;16.70;63.30;;;;;;5094462;28;20020;-73
2021/06/01 05:30:43;;;;;;;9.32;2.38;;;16.70;63.40;;;;;;5094194;28;20101;-73
2021/06/01 05:33:27;;;;;;;4.10;2.30;;;16.80;62.90;;;;;;5094401;28;20020;-73
2021/06/01 05:35:53;;;;;;;4.03;2.22;;;16.80;62.40;;;;;;5094076;28;20020;-74
2021/06/01 05:38:27;;;;;;;5.72;2.00;;;16.90;62.20;;;;;;5093960;28;20107;-74
2021/06/01 05:40:54;;;;;;;3.08;1.77;;;17.00;61.40;;;;;;5094169;28;20487;-73
2021/06/01 05:43:20;;;;;;;2.33;1.92;;;17.00;61.20;;;;;;5093875;28;20135;-74
2021/06/01 05:45:46;;;;;;;3.90;2.05;;;17.10;61.10;;;;;;5093478;28;20025;-73
2021/06/01 05:48:12;;;;;;;12.93;2.40;;;17.10;61.10;;;;;;5092879;28;20088;-73
2021/06/01 05:50:39;;;;;;;10.32;2.95;;;17.10;60.70;;;;;;5092131;28;20020;-74
2021/06/01 05:53:07;;;;;;;6.72;2.88;;;17.20;60.90;;;;;;5074338;28;20024;-74
2021/06/01 05:55:33;;;;;;;5.50;2.15;;;17.20;60.80;;;;;;5092768;28;20031;-74
2021/06/01 05:57:59;;;;;;;5.95;2.40;;;17.30;60.90;;;;;;5092864;28;20107;-74
2021/06/01 06:00:27;;;;;;;4.25;2.20;;;17.30;61.20;;;;;;5093159;28;20103;-74
2021/06/01 06:02:53;;;;;;;4.57;2.30;;;17.40;61.60;;;;;;5092806;28;20016;-73
2021/06/01 06:05:19;;;;;;;6.25;2.33;;;17.50;61.20;;;;;;5092810;28;20023;-73
2021/06/01 06:07:45;;;;;;;3.63;2.38;;;17.50;60.70;;;;;;5092635;28;20494;-73
2021/06/01 06:10:12;;;;;;;3.80;2.20;;;17.60;61.20;;;;;;5091937;28;20020;-73
2021/06/01 06:12:38;;;;;;;4.72;2.38;;;17.60;60.80;;;;;;5092668;28;20110;-73
2021/06/01 06:15:08;;;;;;;7.22;2.67;;;17.60;60.80;;;;;;5092052;28;20020;-73
2021/06/01 06:17:42;;;;;;;6.82;2.47;;;17.60;61.10;;;;;;5092018;28;20024;-74
2021/06/01 06:20:09;;;;;;;9.60;3.42;;;17.70;61.10;;;;;;5092048;28;20443;-74
2021/06/01 06:22:36;;;;;;;4.70;2.22;;;17.70;60.70;;;;;;5090964;28;20020;-73
2021/06/01 06:25:07;;;;;;;6.00;2.30;;;17.80;61.60;;;;;;5093218;28;20403;-74
2021/06/01 06:27:34;;;;;;;4.85;2.17;;;17.80;60.80;;;;;;5092863;28;20035;-73
2021/06/01 06:29:59;;;;;;;9.27;2.50;;;17.90;60.90;;;;;;5093127;28;20044;-74
2021/06/01 06:32:25;;;;;;;8.68;2.67;;;18.00;60.80;;;;;;5092609;28;20480;-73
2021/06/01 06:34:52;;;;;;;8.02;2.17;;;18.00;60.70;;;;;;5092981;28;20046;-73
2021/06/01 06:37:18;;;;;;;8.52;2.47;;;18.10;61.20;;;;;;5092224;28;20028;-73
2021/06/01 06:39:44;;;;;;;7.03;2.35;;;18.20;60.00;;;;;;5092644;28;20100;-73
2021/06/01 06:42:09;;;;;;;6.32;2.83;;;18.30;60.50;;;;;;5092326;28;20032;-73
2021/06/01 06:44:36;;;;;;;11.93;2.42;;;18.30;60.40;;;;;;5092842;28;20031;-72
2021/06/01 06:47:06;;;;;;;6.95;2.40;;;18.40;60.00;;;;;;5093071;28;20103;-74
2021/06/01 06:49:33;;;;;;;6.43;2.28;;;18.40;60.10;;;;;;5092924;28;20027;-73
2021/06/01 06:52:00;;;;;;;7.20;2.40;;;18.40;59.80;;;;;;5093238;28;20038;-73
2021/06/01 06:54:26;;;;;;;7.00;2.28;;;18.40;59.60;;;;;;5093329;28;20023;-73
2021/06/01 06:56:51;;;;;;;4.20;2.22;;;18.50;59.80;;;;;;5093016;28;20024;-73
2021/06/01 06:59:18;;;;;;;6.55;2.33;;;18.50;59.80;;;;;;5093293;28;20071;-73
2021/06/01 07:01:44;;;;;;;8.35;2.38;;;18.50;60.30;;;;;;5093334;28;20020;-73
2021/06/01 07:04:09;;;;;;;5.22;2.30;;;18.60;60.40;;;;;;5093405;28;20035;-73
2021/06/01 07:06:35;;;;;;;7.47;2.58;;;18.70;60.50;;;;;;5094925;28;20334;-72
2021/06/01 07:09:01;;;;;;;4.60;2.50;;;18.80;60.30;;;;;;5096180;28;20063;-74
2021/06/01 07:11:26;;;;;;;6.05;2.47;;;18.80;60.50;;;;;;5096504;28;20055;-72
2021/06/01 07:14:16;;;;;;;3.72;2.00;;;18.80;60.40;;;;;;5078632;28;20061;-73
2021/06/01 07:16:43;;;;;;;3.53;2.00;;;18.90;60.00;;;;;;5054693;28;20039;-74
2021/06/01 07:19:09;;;;;;;4.70;2.25;;;18.90;60.00;;;;;;5096276;28;20046;-73
2021/06/01 07:21:35;;;;;;;5.78;1.98;;;19.00;60.40;;;;;;5097049;28;20152;-72
2021/06/01 07:24:01;;;;;;;5.07;2.20;;;18.90;60.60;;;;;;5096686;28;20024;-74
2021/06/01 07:26:26;;;;;;;11.77;2.75;;;19.00;60.30;;;;;;5096196;28;20035;-73
2021/06/01 07:28:52;;;;;;;2.80;1.90;;;19.10;59.90;;;;;;5096049;28;20097;-74
2021/06/01 07:31:18;;;;;;;3.13;1.80;;;19.10;59.70;;;;;;5096413;28;20028;-74
2021/06/01 07:33:45;;;;;;;5.35;1.77;;;19.10;59.60;;;;;;5077749;28;20464;-74
2021/06/01 07:36:11;;;;;;;4.38;2.00;;;19.20;59.70;;;;;;5096332;28;20415;-73
2021/06/01 07:38:37;;;;;;;4.68;2.00;;;19.40;58.90;;;;;;5095422;28;20036;-75
2021/06/01 07:41:03;;;;;;;9.98;1.75;;;19.50;58.50;;;;;;5096148;28;20028;-75
2021/06/01 07:43:30;;;;;;;2.45;1.80;;;19.60;57.60;;;;;;5094875;28;20032;-75
2021/06/01 07:45:56;;;;;;;3.95;1.90;;;19.60;56.80;;;;;;5095898;28;20056;-75
2021/06/01 07:48:22;;;;;;;4.95;2.17;;;19.60;56.70;;;;;;5094730;28;20023;-75
2021/06/01 07:50:50;;;;;;;4.60;2.00;;;19.60;57.00;;;;;;5095148;28;20028;-75
2021/06/01 07:53:15;;;;;;;3.33;2.13;;;19.60;57.40;;;;;;5096395;28;20023;-75
2021/06/01 07:55:41;;;;;;;4.47;1.80;;;19.60;57.40;;;;;;5096576;28;20099;-75
2021/06/01 07:58:07;;;;;;;6.53;2.08;;;19.60;57.50;;;;;;5096264;28;20028;-75
2021/06/01 08:00:33;;;;;;;3.63;1.85;;;19.70;57.70;;;;;;5096328;28;20082;-76
2021/06/01 08:02:58;;;;;;;3.13;1.70;;;19.80;57.10;;;;;;5096148;28;20016;-76
2021/06/01 08:05:24;;;;;;;2.97;1.20;;;19.90;54.70;;;;;;5096390;28;20077;-75
2021/06/01 08:07:50;;;;;;;8.75;1.45;;;20.00;54.40;;;;;;5096468;28;20031;-75
2021/06/01 08:10:18;;;;;;;6.65;1.77;;;20.00;53.60;;;;;;5096013;28;20034;-75
2021/06/01 08:12:47;;;;;;;2.88;1.50;;;20.10;54.00;;;;;;5096238;28;20016;-75
2021/06/01 08:15:15;;;;;;;4.63;1.67;;;20.20;52.80;;;;;;5096121;28;20028;-75
2021/06/01 08:17:41;;;;;;;3.83;1.83;;;20.20;53.40;;;;;;5095554;28;20159;-75
2021/06/01 08:22:51;;;;;;;3.50;1.60;;;20.50;52.50;;;;;;5096271;28;20392;-75
2021/06/01 08:25:17;;;;;;;2.88;1.70;;;20.50;51.30;;;;;;5077828;28;20020;-75
2021/06/01 08:27:43;;;;;;;4.47;2.90;;;20.60;51.20;;;;;;5095863;28;20487;-75
2021/06/01 08:30:09;;;;;;;3.88;1.85;;;20.60;51.50;;;;;;5128008;22;20055;-67
2021/06/01 08:32:35;;;;;;;3.45;2.30;;;20.70;52.10;;;;;;5115992;28;20038;-67
2021/06/01 08:35:01;;;;;;;4.22;1.88;;;20.80;52.40;;;;;;5116064;28;20019;-67
2021/06/01 08:37:26;;;;;;;3.30;1.83;;;20.90;52.90;;;;;;5115953;28;20028;-67
2021/06/01 08:39:52;;;;;;;3.10;1.92;;;21.00;52.10;;;;;;5115951;28;20081;-68
2021/06/01 08:42:18;;;;;;;3.65;2.00;;;21.10;52.30;;;;;;5115920;28;20020;-68
2021/06/01 08:44:48;;;;;;;6.90;2.17;;;21.20;51.40;;;;;;5116106;28;20107;-67
2021/06/01 08:47:18;;;;;;;3.17;1.88;;;21.20;50.00;;;;;;5115752;28;20475;-69
2021/06/01 08:49:45;;;;;;;4.13;2.00;;;21.30;50.00;;;;;;5115594;28;20031;-67
2021/06/01 08:52:11;;;;;;;3.38;1.90;;;21.30;50.90;;;;;;5115594;28;20092;-68
2021/06/01 08:54:37;;;;;;;7.63;2.00;;;21.40;50.90;;;;;;5115703;28;20031;-67
2021/06/01 08:57:03;;;;;;;5.68;2.13;;;21.40;50.40;;;;;;5115644;28;20019;-68
2021/06/01 08:59:28;;;;;;;5.07;1.90;;;21.50;51.00;;;;;;5115458;28;20039;-67
2021/06/01 09:01:54;;;;;;;6.63;1.90;;;21.60;50.50;;;;;;5115590;28;20384;-68
2021/06/01 09:04:20;;;;;;;2.53;1.73;;;21.70;49.20;;;;;;5115659;28;20027;-67
2021/06/01 09:07:01;;;;;;;2.75;1.63;;;21.70;48.00;;;;;;5115252;28;20034;-68
2021/06/01 09:12:28;;;;;;;5.95;2.30;;;21.70;46.70;;;;;;5115460;28;20028;-68
2021/06/01 09:15:23;;;;;;;8.85;2.22;;;21.70;48.10;;;;;;5115465;28;20015;-67
2021/06/01 09:23:07;;;;;;;5.88;2.10;;;21.90;49.50;;;;;;5115052;28;20028;-67
2021/06/01 09:25:47;;;;;;;2.72;2.15;;;22.00;49.70;;;;;;5115071;28;20031;-67
2021/06/01 09:28:14;;;;;;;3.58;2.00;;;22.00;50.50;;;;;;5113470;28;20032;-67
2021/06/01 09:30:48;;;;;;;2.30;1.60;;;21.90;50.00;;;;;;5115015;28;20026;-67
2021/06/01 09:33:16;;;;;;;3.38;1.70;;;21.90;50.40;;;;;;5114820;28;20040;-68
2021/06/01 09:35:47;;;;;;;4.13;1.83;;;21.80;50.20;;;;;;5114820;28;20016;-67
2021/06/01 09:38:14;;;;;;;2.58;1.98;;;21.80;48.90;;;;;;5114603;28;20071;-67
2021/06/01 09:40:41;;;;;;;3.60;1.55;;;21.70;49.40;;;;;;5114847;28;20053;-67
2021/06/01 09:43:08;;;;;;;6.53;1.80;;;21.70;49.20;;;;;;5114869;28;20372;-67
2021/06/01 09:45:34;;;;;;;5.47;1.90;;;21.60;48.60;;;;;;5114624;28;20031;-67
2021/06/01 09:48:07;;;;;;;6.00;2.10;;;21.60;49.40;;;;;;5114695;28;20072;-67
2021/06/01 09:51:00;;;;;;;4.00;2.00;;;21.60;48.30;;;;;;5114261;28;20118;-67
2021/06/01 09:53:36;;;;;;;4.80;1.98;;;21.60;48.30;;;;;;5114611;28;20019;-68
2021/06/01 09:56:03;;;;;;;4.00;1.98;;;21.70;48.40;;;;;;5114481;28;20035;-67
2021/06/01 09:58:32;;;;;;;4.88;2.10;;;21.80;47.60;;;;;;5114422;28;20049;-67
2021/06/01 10:00:59;;;;;;;10.35;2.35;;;21.90;47.40;;;;;;5114331;28;20034;-67
2021/06/01 10:03:37;;;;;;;4.88;2.13;;;22.00;49.00;;;;;;5114259;28;20422;-68
2021/06/01 10:06:03;;;;;;;2.88;1.73;;;22.20;47.50;;;;;;5114102;28;20056;-68
2021/06/01 10:08:30;;;;;;;4.32;2.03;;;22.30;47.40;;;;;;5114132;28;20084;-70
2021/06/01 10:11:04;;;;;;;3.80;2.00;;;22.50;43.90;;;;;;5114141;28;20363;-67
2021/06/01 10:13:37;;;;;;;4.32;1.80;;;22.50;44.80;;;;;;5114311;28;20030;-67
2021/06/01 10:16:05;;;;;;;5.50;2.00;;;22.50;45.30;;;;;;5114088;28;20081;-68
2021/06/01 10:18:32;;;;;;;3.28;2.03;;;22.50;47.30;;;;;;5113967;28;20122;-68
2021/06/01 10:21:00;;;;;;;5.10;2.20;;;22.60;46.20;;;;;;5114026;28;20080;-68
2021/06/01 10:23:42;;;;;;;3.38;1.90;;;22.80;47.20;;;;;;5113899;28;20023;-69
2021/06/01 10:26:12;;;;;;;5.38;2.20;;;23.00;47.70;;;;;;5114041;28;20494;-68
2021/06/01 10:28:42;;;;;;;5.45;2.30;;;23.10;46.20;;;;;;5113774;28;20047;-68
2021/06/01 10:31:10;;;;;;;6.40;2.25;;;23.20;45.00;;;;;;5113929;28;20019;-68
2021/06/01 10:33:50;;;;;;;3.28;2.30;;;23.20;44.20;;;;;;5113826;28;20076;-68
2021/06/01 10:42:29;;;;;;;3.00;2.08;;;23.30;45.00;;;;;;5113597;28;20026;-68
2021/06/01 10:51:05;;;;;;;4.35;2.17;;;23.90;45.80;;;;;;5113581;28;20054;-67
2021/06/01 10:53:41;;;;;;;4.15;2.10;;;24.00;46.10;;;;;;5113841;28;20031;-68
2021/06/01 10:56:08;;;;;;;4.25;2.20;;;24.10;45.90;;;;;;5113725;28;20027;-68
2021/06/01 10:58:42;;;;;;;3.15;1.85;;;24.20;45.20;;;;;;5113300;28;20028;-70
2021/06/01 11:04:30;;;;;;;3.92;2.25;;;24.40;45.10;;;;;;5113583;28;20031;-68
2021/06/01 11:07:01;;;;;;;5.53;2.42;;;24.50;43.70;;;;;;5113604;28;20098;-68
2021/06/01 11:09:40;;;;;;;3.25;2.38;;;24.50;45.70;;;;;;5113271;28;20034;-68
2021/06/01 11:12:18;;;;;;;8.80;2.35;;;24.60;45.10;;;;;;5113410;28;20498;-68
2021/06/01 11:14:56;;;;;;;5.53;2.35;;;24.50;44.10;;;;;;5113491;28;20073;-68
2021/06/01 11:17:35;;;;;;;4.35;2.30;;;24.50;43.50;;;;;;5113492;28;20027;-68
2021/06/01 11:20:21;;;;;;;6.07;2.25;;;24.50;44.50;;;;;;5113481;28;20039;-68
2021/06/01 11:33:51;;;;;;;4.18;2.65;;;24.70;45.80;;;;;;5113244;28;20049;-68
2021/06/01 11:36:18;;;;;;;3.67;2.92;;;24.70;46.70;;;;;;5113282;28;20047;-68
2021/06/01 11:38:52;;;;;;;5.28;2.20;;;24.70;45.70;;;;;;5113001;28;20079;-67
2021/06/01 11:44:28;;;;;;;5.20;2.67;;;24.90;47.00;;;;;;5113437;28;20032;-68
2021/06/01 11:47:28;;;;;;;4.70;2.95;;;25.00;48.50;;;;;;5113393;28;20027;-67
2021/06/01 11:52:57;;;;;;;4.47;3.17;;;24.90;45.70;;;;;;5059786;28;20031;-68
2021/06/01 11:55:23;;;;;;;4.90;2.40;;;24.70;46.30;;;;;;5116967;28;20028;-67
2021/06/01 12:03:18;;;;;;;3.78;2.53;;;24.80;47.50;;;;;;5117241;28;20403;-68
2021/06/01 12:11:13;;;;;;;5.60;2.58;;;24.90;47.70;;;;;;5116793;28;20024;-68
2021/06/01 12:11:42;;;;;;;6.95;2.58;;;25.20;48.00;;;;;;5085212;28;20040;-68
2021/06/01 12:17:13;;;;;;;6.38;2.35;;;25.40;47.00;;;;;;5043743;28;20489;-68
2021/06/01 12:19:39;;;;;;;5.80;2.47;;;25.40;46.80;;;;;;5116236;28;20032;-67
2021/06/01 12:22:05;;;;;;;4.82;2.38;;;25.40;46.90;;;;;;5116572;28;20474;-68
2021/06/01 12:24:31;;;;;;;6.68;2.47;;;25.40;46.70;;;;;;5116384;28;20387;-68
2021/06/01 12:27:16;;;;;;;6.30;2.80;;;25.30;46.10;;;;;;5116318;28;20020;-68
2021/06/01 12:32:31;;;;;;;4.53;2.22;;;24.90;45.30;;;;;;5116402;28;20035;-68
2021/06/01 12:36:28;;;;;;;4.28;2.30;;;24.80;46.00;;;;;;5116083;28;20020;-68
2021/06/01 12:46:25;;;;;;;3.97;2.08;;;24.60;46.70;;;;;;5116191;28;20027;-68
2021/06/01 13:20:46;;;;;;;5.00;1.77;;;25.20;44.10;;;;;;5115309;28;20570;-68
2021/06/01 13:40:40;;;;;;;2.92;1.60;;;25.50;41.00;;;;;;5114971;28;20036;-68
2021/06/01 13:46:17;;;;;;;5.07;1.90;;;25.60;41.10;;;;;;5115053;28;20038;-68
2021/06/01 13:56:07;;;;;;;3.00;1.95;;;25.70;40.80;;;;;;5115269;28;20487;-68
2021/06/01 14:40:05;;;;;;;5.75;2.00;;;25.60;39.20;;;;;;5113829;28;20096;-68
2021/06/01 15:04:55;;;;;;;4.53;2.05;;;25.60;43.10;;;;;;5113462;28;20026;-68
2021/06/01 15:50:33;;;;;;;;;;;25.20;44.20;;;;;;5117404;28;20023;-68
2021/06/01 17:04:49;;;;;;;2.80;1.90;;;24.20;43.90;;;;;;5094387;28;20085;-67
2021/06/01 17:07:41;;;;;;;4.57;1.75;;;24.20;43.90;;;;;;5092734;28;20115;-68
2021/06/01 17:13:00;;;;;;;2.30;1.83;;;24.10;43.50;;;;;;5094797;28;20035;-67
2021/06/01 17:15:26;;;;;;;4.90;1.90;;;24.00;44.10;;;;;;5093736;28;20055;-69
2021/06/01 17:17:57;;;;;;;3.05;1.77;;;24.00;42.70;;;;;;5092975;28;20024;-68
2021/06/01 17:20:44;;;;;;;3.15;2.10;;;24.00;42.10;;;;;;5093759;28;20059;-68
2021/06/01 17:23:32;;;;;;;3.00;1.92;;;23.90;42.80;;;;;;5093084;28;20018;-68
2021/06/01 17:36:58;;;;;;;3.63;1.80;;;23.70;43.70;;;;;;5095210;28;20162;-67
2021/06/01 17:39:24;;;;;;;4.65;2.10;;;23.60;42.50;;;;;;5094444;28;20059;-68
2021/06/01 17:41:52;;;;;;;7.63;2.08;;;23.60;42.50;;;;;;5094402;28;20077;-67
2021/06/01 17:44:23;;;;;;;2.38;1.88;;;23.50;43.10;;;;;;5094370;28;20384;-67
2021/06/01 17:46:50;;;;;;;5.85;2.38;;;23.50;42.80;;;;;;5094366;28;20411;-68
2021/06/01 17:49:22;;;;;;;6.85;2.03;;;23.40;44.10;;;;;;5093826;28;20027;-68
2021/06/01 17:51:53;;;;;;;3.08;1.83;;;23.40;43.80;;;;;;5094267;28;20055;-67
2021/06/01 17:54:34;;;;;;;2.70;1.80;;;23.30;43.90;;;;;;5094222;28;20027;-67
2021/06/01 17:57:02;;;;;;;3.22;1.75;;;23.30;44.60;;;;;;5094135;28;20035;-68
2021/06/01 17:59:29;;;;;;;3.70;2.00;;;23.20;45.20;;;;;;5093699;28;20480;-68
2021/06/01 18:01:56;;;;;;;3.70;1.70;;;23.20;45.20;;;;;;5094305;28;20417;-67
2021/06/01 18:04:24;;;;;;;5.68;2.00;;;23.10;45.30;;;;;;5093969;28;20027;-67
2021/06/01 18:12:17;;;;;;;3.08;2.13;;;23.00;46.80;;;;;;5094038;28;20047;-67
2021/06/01 18:43:05;;;;;;;3.42;1.80;;;22.40;50.10;;;;;;5064640;28;20556;-68
2021/06/01 19:02:03;;;;;;;2.28;1.70;;;22.00;49.30;;;;;;5097642;28;20031;-67
2021/06/01 19:26:42;;;;;;;2.38;1.70;;;21.50;52.10;;;;;;5099892;28;20384;-67
2021/06/01 19:43:29;;;;;;;6.53;2.40;;;21.20;53.20;;;;;;5099444;28;20518;-67
2021/06/01 19:51:21;;;;;;;3.85;2.53;;;21.10;53.80;;;;;;5098533;28;20034;-67
2021/06/01 19:53:51;;;;;;;5.07;2.58;;;21.10;53.80;;;;;;5099352;28;20024;-68